Time;durP1;ratioP1;P1;durP2;ratioP2;P2;SDS_P1;SDS_P2;PMS_P1;PMS_P2;Temp;Humidity;BMP_temperature;BMP_pressure;BME280_temperature;BME280_humidity;BME280_pressure;Samples;Min_cycle;Max_cycle;Signal;HPM_P1;HPM_P2
2022/03/01 00:00:06;;;;;;;17.70;11.35;;;5.60;99.90;;;;;;5030666;28;20038;-86
2022/03/01 00:02:35;;;;;;;15.48;11.77;;;5.40;99.90;;;;;;5031814;28;20481;-86
2022/03/01 00:05:03;;;;;;;19.33;12.35;;;5.40;99.90;;;;;;5031146;28;20108;-86
2022/03/01 00:07:32;;;;;;;20.83;12.30;;;5.30;99.90;;;;;;5031525;28;20572;-87
2022/03/01 00:09:58;;;;;;;19.60;13.07;;;5.20;99.90;;;;;;5030729;28;20045;-86
2022/03/01 00:12:33;;;;;;;17.65;12.15;;;4.90;99.90;;;;;;5031034;28;20486;-86
2022/03/01 00:15:03;;;;;;;16.67;12.02;;;4.90;99.90;;;;;;5030244;28;20184;-86
2022/03/01 00:17:30;;;;;;;17.08;11.27;;;5.00;99.90;;;;;;5030259;28;20025;-86
2022/03/01 00:19:56;;;;;;;18.83;11.98;;;5.10;99.90;;;;;;5016500;28;20087;-87
2022/03/01 00:22:21;;;;;;;17.73;11.88;;;5.10;99.90;;;;;;5035930;28;20029;-87
2022/03/01 00:24:47;;;;;;;17.48;12.38;;;5.50;99.90;;;;;;5036213;28;20025;-85
2022/03/01 00:27:13;;;;;;;15.77;11.02;;;5.30;99.90;;;;;;5035880;28;20498;-86
2022/03/01 00:29:39;;;;;;;15.95;11.90;;;4.90;99.90;;;;;;5025092;28;20432;-85
2022/03/01 00:32:05;;;;;;;14.70;11.38;;;5.00;99.90;;;;;;5025130;28;20018;-83
2022/03/01 00:34:31;;;;;;;17.20;11.98;;;5.30;99.90;;;;;;5018437;28;20051;-85
2022/03/01 00:36:56;;;;;;;20.92;12.43;;;5.20;99.90;;;;;;5035374;28;20481;-85
2022/03/01 00:39:22;;;;;;;17.60;12.05;;;4.90;99.90;;;;;;5017451;28;20482;-87
2022/03/01 00:41:48;;;;;;;19.17;12.60;;;5.40;99.90;;;;;;5034266;28;20058;-85
2022/03/01 00:44:13;;;;;;;17.75;12.60;;;4.90;99.90;;;;;;5017789;28;20048;-86
2022/03/01 00:46:39;;;;;;;17.10;11.95;;;5.20;99.90;;;;;;5037808;28;20048;-86
2022/03/01 00:49:05;;;;;;;16.02;11.88;;;4.80;99.90;;;;;;5018097;28;20439;-86
2022/03/01 00:51:30;;;;;;;18.55;11.98;;;4.50;99.90;;;;;;5018034;28;20490;-86
2022/03/01 00:53:56;;;;;;;15.73;10.73;;;4.80;99.90;;;;;;5044210;28;20069;-85
2022/03/01 00:56:22;;;;;;;15.05;11.38;;;4.50;99.90;;;;;;5017665;28;20017;-85
2022/03/01 00:58:48;;;;;;;16.27;10.82;;;5.00;99.90;;;;;;5035015;28;20037;-85
2022/03/01 01:01:13;;;;;;;17.42;11.25;;;4.90;99.90;;;;;;5035597;28;20056;-85
2022/03/01 01:03:39;;;;;;;16.70;10.98;;;4.70;99.90;;;;;;5035280;28;20026;-85
2022/03/01 01:06:05;;;;;;;16.35;11.10;;;5.40;99.90;;;;;;5033797;28;20022;-85
2022/03/01 01:08:30;;;;;;;18.08;11.27;;;4.90;99.90;;;;;;5030044;28;20025;-86
2022/03/01 01:10:56;;;;;;;18.35;12.07;;;4.90;99.90;;;;;;5034348;28;20044;-85
2022/03/01 01:13:22;;;;;;;15.38;11.80;;;4.70;99.90;;;;;;5035341;28;20021;-86
2022/03/01 01:15:48;;;;;;;17.83;11.50;;;4.50;99.90;;;;;;5017777;28;20025;-85
2022/03/01 01:18:14;;;;;;;14.65;11.13;;;4.60;99.90;;;;;;5035434;28;20044;-85
2022/03/01 01:20:40;;;;;;;15.52;11.23;;;4.40;99.90;;;;;;5035191;28;20533;-86
2022/03/01 01:23:06;;;;;;;15.57;11.65;;;4.70;99.90;;;;;;5017368;28;20025;-85
2022/03/01 01:25:32;;;;;;;15.40;11.90;;;4.40;99.90;;;;;;5013553;28;20083;-86
2022/03/01 01:27:59;;;;;;;14.85;10.90;;;4.50;99.90;;;;;;5017063;28;20509;-86
2022/03/01 01:30:27;;;;;;;15.13;11.05;;;4.40;99.90;;;;;;5034283;28;20025;-86
2022/03/01 01:32:53;;;;;;;17.55;10.60;;;5.10;99.90;;;;;;5034805;28;20485;-86
2022/03/01 01:35:22;;;;;;;16.27;10.88;;;4.70;99.90;;;;;;5034982;28;20555;-86
2022/03/01 01:37:50;;;;;;;15.95;10.70;;;4.40;99.90;;;;;;5034953;28;20042;-86
2022/03/01 01:40:19;;;;;;;15.88;10.57;;;4.70;99.90;;;;;;5017010;28;20405;-85
2022/03/01 01:42:45;;;;;;;14.88;10.43;;;4.20;99.90;;;;;;5016764;28;20018;-87
2022/03/01 01:45:11;;;;;;;19.45;10.98;;;4.20;99.90;;;;;;5034815;28;20034;-87
2022/03/01 01:47:37;;;;;;;14.38;10.73;;;4.20;99.90;;;;;;5034547;28;20489;-87
2022/03/01 01:50:05;;;;;;;13.48;10.10;;;4.50;99.90;;;;;;5025600;28;20053;-87
2022/03/01 01:52:31;;;;;;;16.02;11.95;;;4.00;99.90;;;;;;5033672;28;20033;-88
2022/03/01 01:54:57;;;;;;;20.92;11.55;;;4.20;99.90;;;;;;5032843;28;20124;-88
2022/03/01 01:57:24;;;;;;;19.20;11.50;;;4.20;99.90;;;;;;5034624;28;20397;-88
2022/03/01 01:59:52;;;;;;;15.88;11.15;;;4.20;99.90;;;;;;5034153;28;20045;-87
2022/03/01 02:02:20;;;;;;;19.02;11.55;;;4.30;99.90;;;;;;5024059;28;20028;-86
2022/03/01 02:04:45;;;;;;;15.10;11.27;;;4.30;99.90;;;;;;5034214;28;20370;-87
2022/03/01 02:07:12;;;;;;;18.25;11.20;;;4.70;99.90;;;;;;5018101;28;20021;-87
2022/03/01 02:09:38;;;;;;;19.52;11.55;;;4.20;99.90;;;;;;5019479;28;20587;-87
2022/03/01 02:12:04;;;;;;;17.45;11.43;;;4.50;99.90;;;;;;5017234;28;20052;-87
2022/03/01 02:14:31;;;;;;;16.65;11.90;;;4.30;99.90;;;;;;5032188;28;20087;-88
2022/03/01 02:16:59;;;;;;;17.45;12.55;;;4.20;99.90;;;;;;5044799;28;20037;-87
2022/03/01 02:19:27;;;;;;;18.58;11.52;;;4.30;99.90;;;;;;5031575;28;20044;-87
2022/03/01 02:21:57;;;;;;;19.23;12.95;;;4.20;99.90;;;;;;5033845;28;20041;-88
2022/03/01 02:24:28;;;;;;;19.90;12.82;;;4.00;99.90;;;;;;5034525;28;20025;-87
2022/03/01 02:26:59;;;;;;;17.60;12.30;;;4.00;99.90;;;;;;5017464;28;20134;-88
2022/03/01 02:29:26;;;;;;;18.48;13.63;;;3.90;99.90;;;;;;5016479;28;20021;-87
2022/03/01 02:31:53;;;;;;;16.70;11.80;;;3.80;99.90;;;;;;5016319;28;20095;-88
2022/03/01 02:34:19;;;;;;;18.48;12.50;;;3.90;99.90;;;;;;5034425;28;20013;-87
2022/03/01 02:36:45;;;;;;;15.18;11.18;;;4.20;99.90;;;;;;5033093;28;20501;-88
2022/03/01 02:39:12;;;;;;;19.83;12.07;;;4.40;99.90;;;;;;4996766;28;20535;-88
2022/03/01 02:41:39;;;;;;;15.57;11.23;;;4.40;99.90;;;;;;5014108;28;20053;-88
2022/03/01 02:44:05;;;;;;;17.95;12.05;;;4.20;99.90;;;;;;5026186;28;20096;-88
2022/03/01 02:46:31;;;;;;;15.32;12.00;;;4.00;99.90;;;;;;5033957;28;20052;-88
2022/03/01 02:48:56;;;;;;;17.25;11.85;;;4.00;99.90;;;;;;5016592;28;20021;-88
2022/03/01 02:51:22;;;;;;;15.68;11.18;;;3.90;99.90;;;;;;5034099;28;20031;-87
2022/03/01 02:53:47;;;;;;;17.08;11.15;;;3.90;99.90;;;;;;5034081;28;20033;-87
2022/03/01 02:56:13;;;;;;;15.98;11.60;;;4.30;99.90;;;;;;5016255;28;20052;-88
2022/03/01 02:58:40;;;;;;;16.20;11.52;;;4.10;99.90;;;;;;5016025;28;20497;-88
2022/03/01 03:01:06;;;;;;;18.88;12.05;;;3.60;99.90;;;;;;5034312;28;20040;-87
2022/03/01 03:03:32;;;;;;;18.15;12.18;;;3.60;99.90;;;;;;5016065;28;20017;-87
2022/03/01 03:05:57;;;;;;;17.98;11.95;;;4.10;99.90;;;;;;5030971;28;20406;-87
2022/03/01 03:08:23;;;;;;;16.35;11.88;;;3.70;99.90;;;;;;5029759;28;20478;-87
2022/03/01 03:10:48;;;;;;;18.48;12.75;;;4.00;99.90;;;;;;5023273;28;20022;-88
2022/03/01 03:13:14;;;;;;;17.15;11.88;;;4.10;99.90;;;;;;5014785;28;20030;-87
2022/03/01 03:15:40;;;;;;;16.85;12.00;;;3.60;99.90;;;;;;5015721;28;20024;-87
2022/03/01 03:18:05;;;;;;;18.75;12.50;;;3.70;99.90;;;;;;5033783;28;20473;-87
2022/03/01 03:20:31;;;;;;;23.33;13.07;;;3.60;99.90;;;;;;5033300;28;20068;-88
2022/03/01 03:22:56;;;;;;;18.80;13.38;;;3.60;99.90;;;;;;5008484;28;20088;-88
2022/03/01 03:25:22;;;;;;;17.65;12.77;;;3.60;99.90;;;;;;5020156;28;20442;-88
2022/03/01 03:27:48;;;;;;;16.75;12.52;;;3.60;99.90;;;;;;5032284;28;20021;-88
2022/03/01 03:30:13;;;;;;;19.52;13.80;;;3.40;99.90;;;;;;5032839;28;20379;-87
2022/03/01 03:32:39;;;;;;;20.73;14.18;;;3.50;99.90;;;;;;5029079;28;20068;-87
2022/03/01 03:35:06;;;;;;;19.48;13.73;;;3.50;99.90;;;;;;5033360;28;20026;-88
2022/03/01 03:37:31;;;;;;;20.02;13.43;;;3.60;99.90;;;;;;5033459;28;20053;-88
2022/03/01 03:39:57;;;;;;;17.05;12.52;;;4.10;99.90;;;;;;5033387;28;20437;-88
2022/03/01 03:42:23;;;;;;;18.83;12.50;;;3.60;99.90;;;;;;5015572;28;20036;-88
2022/03/01 03:44:49;;;;;;;17.08;12.55;;;3.50;99.90;;;;;;5015763;28;20029;-87
2022/03/01 03:47:15;;;;;;;20.63;12.98;;;3.60;99.90;;;;;;5015566;28;20379;-88
2022/03/01 03:49:40;;;;;;;20.15;13.07;;;3.50;99.90;;;;;;5015864;28;20029;-88
2022/03/01 03:52:07;;;;;;;19.70;14.13;;;3.60;99.90;;;;;;5015454;28;20416;-88
2022/03/01 03:54:33;;;;;;;19.65;13.52;;;3.60;99.90;;;;;;5035240;28;20030;-87
2022/03/01 03:56:59;;;;;;;21.05;13.93;;;3.60;99.90;;;;;;5019330;28;20060;-85
2022/03/01 03:59:25;;;;;;;19.50;13.57;;;3.70;99.90;;;;;;5020454;28;20057;-88
2022/03/01 04:01:51;;;;;;;20.23;13.73;;;3.50;99.90;;;;;;5037292;28;20021;-87
2022/03/01 04:04:17;;;;;;;19.90;13.10;;;3.50;99.90;;;;;;5019386;28;20478;-88
2022/03/01 04:06:42;;;;;;;20.88;14.00;;;3.90;99.90;;;;;;5019039;28;20033;-88
2022/03/01 04:09:08;;;;;;;16.13;12.75;;;4.00;99.90;;;;;;5036803;28;20450;-87
2022/03/01 04:11:34;;;;;;;19.77;12.90;;;3.50;99.90;;;;;;5037057;28;20022;-88
2022/03/01 04:14:00;;;;;;;18.63;13.27;;;3.50;99.90;;;;;;5031522;28;20034;-87
2022/03/01 04:16:27;;;;;;;19.27;13.48;;;3.70;99.90;;;;;;5036808;28;20041;-88
2022/03/01 04:18:54;;;;;;;18.77;13.23;;;3.50;99.90;;;;;;5037019;28;20042;-88
2022/03/01 04:21:20;;;;;;;22.25;14.07;;;3.40;99.90;;;;;;5036910;28;20037;-88
2022/03/01 04:23:46;;;;;;;23.73;13.60;;;3.20;99.90;;;;;;5050434;28;20033;-86
2022/03/01 04:26:12;;;;;;;19.27;12.05;;;3.40;99.90;;;;;;5042833;28;20405;-88
2022/03/01 04:28:37;;;;;;;18.98;12.63;;;3.10;99.90;;;;;;5036819;28;20021;-88
2022/03/01 04:31:03;;;;;;;16.85;12.10;;;2.90;99.90;;;;;;5019250;28;20037;-88
2022/03/01 04:33:29;;;;;;;18.38;12.50;;;3.00;99.90;;;;;;5018915;28;20104;-88
2022/03/01 04:35:54;;;;;;;18.33;12.77;;;3.00;99.90;;;;;;5033949;28;20030;-88
2022/03/01 04:38:20;;;;;;;16.20;12.73;;;3.00;99.90;;;;;;5036416;28;20041;-87
2022/03/01 04:40:46;;;;;;;19.17;14.63;;;3.00;99.90;;;;;;5036207;28;20041;-88
2022/03/01 04:43:12;;;;;;;24.70;14.50;;;3.00;99.90;;;;;;5036274;28;20021;-88
2022/03/01 04:45:38;;;;;;;21.15;13.98;;;3.00;99.90;;;;;;5036405;28;20548;-88
2022/03/01 04:48:04;;;;;;;19.52;13.27;;;3.20;99.90;;;;;;5035357;28;20025;-88
2022/03/01 04:50:29;;;;;;;20.88;13.90;;;2.90;99.90;;;;;;5023821;28;20040;-88
2022/03/01 04:52:55;;;;;;;21.27;13.55;;;2.90;99.90;;;;;;5011785;28;20478;-88
2022/03/01 04:55:21;;;;;;;20.65;13.25;;;3.40;99.90;;;;;;5015436;28;20091;-88
2022/03/01 04:57:46;;;;;;;18.70;13.43;;;2.90;99.90;;;;;;5018136;28;20441;-88
2022/03/01 05:00:13;;;;;;;22.35;13.57;;;2.90;99.90;;;;;;5036090;28;20139;-88
2022/03/01 05:02:40;;;;;;;19.55;13.35;;;2.80;99.90;;;;;;5035964;28;20021;-88
2022/03/01 05:05:10;;;;;;;18.75;13.05;;;2.90;99.90;;;;;;5035335;28;20041;-87
2022/03/01 05:07:38;;;;;;;17.73;13.25;;;2.80;99.90;;;;;;5035604;28;20029;-89
2022/03/01 05:10:04;;;;;;;18.95;13.18;;;2.80;99.90;;;;;;5017924;28;20036;-88
2022/03/01 05:12:30;;;;;;;19.50;13.50;;;2.70;99.90;;;;;;5018217;28;20383;-88
2022/03/01 05:14:55;;;;;;;18.27;12.32;;;2.80;99.90;;;;;;5036221;28;20075;-88
2022/03/01 05:17:21;;;;;;;20.73;13.00;;;3.20;99.90;;;;;;5018472;28;20473;-88
2022/03/01 05:19:47;;;;;;;18.50;13.50;;;3.00;99.90;;;;;;5035842;28;20033;-87
2022/03/01 05:22:12;;;;;;;16.98;12.27;;;3.30;99.90;;;;;;5018447;28;20037;-89
2022/03/01 05:24:39;;;;;;;16.98;12.88;;;2.60;99.90;;;;;;5018171;28;20412;-88
2022/03/01 05:27:04;;;;;;;19.15;12.90;;;3.00;99.90;;;;;;5018271;28;20029;-88
2022/03/01 05:29:30;;;;;;;18.40;13.40;;;3.20;99.90;;;;;;5018265;28;20036;-88
2022/03/01 05:31:56;;;;;;;17.55;12.73;;;2.80;99.90;;;;;;5035515;28;20035;-88
2022/03/01 05:34:21;;;;;;;18.50;12.32;;;2.50;99.90;;;;;;5017838;28;20034;-88
2022/03/01 05:36:47;;;;;;;20.05;13.05;;;2.40;99.90;;;;;;5018154;28;20083;-88
2022/03/01 05:39:12;;;;;;;19.33;12.82;;;2.40;99.90;;;;;;5018150;28;20025;-87
2022/03/01 05:41:38;;;;;;;17.38;12.90;;;2.50;99.90;;;;;;5034200;28;20467;-88
2022/03/01 05:44:04;;;;;;;19.40;13.30;;;2.50;99.90;;;;;;5025770;28;20490;-88
2022/03/01 05:46:30;;;;;;;18.60;12.30;;;2.60;99.90;;;;;;5017207;28;20055;-87
2022/03/01 05:48:56;;;;;;;19.40;12.95;;;2.50;99.90;;;;;;5017451;28;20561;-88
2022/03/01 05:51:21;;;;;;;16.75;12.30;;;2.50;99.90;;;;;;5035504;28;20030;-87
2022/03/01 05:53:47;;;;;;;19.42;12.70;;;2.40;99.90;;;;;;5031197;28;20032;-88
2022/03/01 05:56:13;;;;;;;20.13;13.05;;;2.70;99.90;;;;;;5035448;28;20128;-88
2022/03/01 05:58:38;;;;;;;25.05;13.27;;;2.50;99.90;;;;;;5035206;28;20021;-88
2022/03/01 06:01:05;;;;;;;20.38;12.75;;;2.50;99.90;;;;;;5034913;28;20413;-88
2022/03/01 06:03:30;;;;;;;18.48;12.80;;;2.50;99.90;;;;;;5035156;28;20021;-88
2022/03/01 06:05:56;;;;;;;17.25;13.00;;;3.10;99.90;;;;;;5017404;28;20681;-88
2022/03/01 06:08:22;;;;;;;17.58;11.80;;;2.50;99.90;;;;;;5035031;28;21132;-88
2022/03/01 06:10:47;;;;;;;23.75;12.93;;;2.40;99.90;;;;;;5034937;28;20076;-88
2022/03/01 06:13:13;;;;;;;17.70;12.95;;;2.90;99.90;;;;;;5017607;28;20048;-88
2022/03/01 06:15:38;;;;;;;19.83;12.68;;;2.40;99.90;;;;;;5016883;28;20051;-88
2022/03/01 06:18:04;;;;;;;18.23;13.55;;;2.60;99.90;;;;;;5016439;28;20033;-88
2022/03/01 06:20:30;;;;;;;23.23;13.35;;;2.10;99.90;;;;;;5034016;28;20048;-88
2022/03/01 06:22:55;;;;;;;18.23;13.50;;;2.20;99.90;;;;;;5026072;28;20029;-89
2022/03/01 06:25:21;;;;;;;19.10;13.35;;;2.80;99.90;;;;;;5016890;28;20067;-88
2022/03/01 06:27:47;;;;;;;20.67;12.77;;;2.20;99.90;;;;;;5016998;28;20019;-88
2022/03/01 06:30:12;;;;;;;18.88;13.07;;;2.30;99.90;;;;;;5016820;28;20112;-88
2022/03/01 06:32:38;;;;;;;19.90;14.52;;;2.20;99.90;;;;;;5000336;28;20022;-88
2022/03/01 06:35:05;;;;;;;21.27;13.90;;;2.10;99.90;;;;;;5025391;28;20064;-86
2022/03/01 06:37:31;;;;;;;21.48;13.40;;;2.20;99.90;;;;;;5033794;28;20075;-87
2022/03/01 06:39:56;;;;;;;17.95;12.77;;;2.30;99.90;;;;;;5033303;28;20053;-88
2022/03/01 06:42:22;;;;;;;21.20;12.77;;;2.10;99.90;;;;;;5017027;28;20143;-88
2022/03/01 06:44:48;;;;;;;18.33;12.70;;;2.30;99.90;;;;;;5033968;28;20030;-87
2022/03/01 06:47:13;;;;;;;18.38;12.50;;;2.40;99.90;;;;;;5033186;28;20037;-88
2022/03/01 06:49:39;;;;;;;21.73;12.70;;;2.30;99.90;;;;;;5021314;28;20029;-88
2022/03/01 06:52:05;;;;;;;28.15;14.02;;;2.20;99.90;;;;;;5032354;28;20116;-88
2022/03/01 06:54:31;;;;;;;21.90;13.82;;;2.20;99.90;;;;;;5034265;28;20030;-88
2022/03/01 06:56:56;;;;;;;23.10;14.13;;;2.70;99.90;;;;;;5012018;28;20032;-88
2022/03/01 06:59:24;;;;;;;26.08;14.98;;;2.80;99.90;;;;;;5015761;28;20021;-88
2022/03/01 07:01:50;;;;;;;17.92;13.20;;;2.60;99.90;;;;;;5032634;28;20033;-87
2022/03/01 07:04:15;;;;;;;19.85;13.95;;;2.50;99.90;;;;;;5032052;28;20029;-85
2022/03/01 07:06:41;;;;;;;19.08;12.70;;;3.10;99.90;;;;;;5031234;28;20044;-85
2022/03/01 07:09:07;;;;;;;17.05;13.07;;;3.50;99.90;;;;;;5031675;28;20028;-85
2022/03/01 07:11:32;;;;;;;20.95;12.93;;;3.70;99.90;;;;;;5031392;28;20481;-84
2022/03/01 07:13:58;;;;;;;20.70;13.30;;;4.20;99.90;;;;;;5030473;28;20064;-85
2022/03/01 07:16:23;;;;;;;20.65;14.02;;;4.10;99.90;;;;;;5031473;28;20025;-85
2022/03/01 07:18:50;;;;;;;20.65;14.13;;;4.20;99.90;;;;;;5032619;28;20029;-85
2022/03/01 07:21:15;;;;;;;22.90;14.70;;;4.40;99.90;;;;;;5029297;28;20037;-85
2022/03/01 07:23:41;;;;;;;24.95;14.57;;;4.10;99.90;;;;;;5031396;28;20029;-85
2022/03/01 07:26:07;;;;;;;22.38;14.07;;;4.10;99.90;;;;;;5031021;28;20029;-85
2022/03/01 07:28:34;;;;;;;22.55;13.77;;;4.50;99.90;;;;;;5030445;28;20026;-85
2022/03/01 07:31:03;;;;;;;18.27;13.15;;;4.30;99.90;;;;;;5031140;28;20443;-85
2022/03/01 07:33:28;;;;;;;18.05;13.15;;;4.40;99.90;;;;;;5031619;28;20026;-85
2022/03/01 07:35:54;;;;;;;19.92;12.98;;;4.60;99.90;;;;;;5031385;28;20397;-85
2022/03/01 07:38:19;;;;;;;17.48;12.93;;;5.00;99.90;;;;;;5030903;28;20075;-85
2022/03/01 07:40:45;;;;;;;19.13;12.38;;;4.70;99.90;;;;;;5030807;28;20042;-85
2022/03/01 07:43:11;;;;;;;19.38;13.13;;;4.60;99.90;;;;;;5029947;28;20030;-85
2022/03/01 07:45:45;;;;;;;20.73;12.90;;;4.60;99.90;;;;;;5031438;28;20378;-85
2022/03/01 07:48:12;;;;;;;21.70;13.00;;;4.80;99.90;;;;;;5030990;28;20033;-86
2022/03/01 07:50:38;;;;;;;18.55;12.45;;;5.00;99.90;;;;;;5031801;28;20362;-85
2022/03/01 07:53:04;;;;;;;21.88;13.90;;;5.20;99.90;;;;;;5038313;28;20116;-85
2022/03/01 07:55:29;;;;;;;19.83;12.50;;;4.90;99.90;;;;;;5031166;28;20477;-85
2022/03/01 07:57:55;;;;;;;20.52;13.18;;;4.90;99.90;;;;;;5013309;28;20025;-87
2022/03/01 08:00:24;;;;;;;18.55;12.65;;;4.90;99.90;;;;;;5032398;28;20026;-85
2022/03/01 08:02:52;;;;;;;19.52;12.88;;;5.00;99.90;;;;;;5031576;28;20037;-86
2022/03/01 08:05:17;;;;;;;17.80;12.57;;;5.10;99.90;;;;;;5031791;28;20040;-85
2022/03/01 08:07:43;;;;;;;21.55;13.70;;;5.30;99.90;;;;;;5031414;28;20113;-85
2022/03/01 08:10:09;;;;;;;19.05;14.02;;;5.10;99.90;;;;;;5031439;28;20083;-86
2022/03/01 08:12:37;;;;;;;21.33;13.18;;;5.10;99.90;;;;;;5014194;28;20044;-86
2022/03/01 08:15:03;;;;;;;19.65;12.80;;;5.20;99.90;;;;;;5016202;28;20030;-86
2022/03/01 08:17:29;;;;;;;21.70;13.30;;;5.30;99.90;;;;;;5030673;28;20079;-87
2022/03/01 08:19:55;;;;;;;22.63;14.15;;;5.50;99.90;;;;;;5031367;28;20125;-85
2022/03/01 08:22:21;;;;;;;20.20;13.57;;;5.90;99.90;;;;;;5031656;28;20401;-86
2022/03/01 08:24:46;;;;;;;22.85;13.55;;;6.00;99.90;;;;;;5031344;28;20021;-86
2022/03/01 08:27:12;;;;;;;18.73;12.00;;;6.30;99.90;;;;;;5014118;28;20405;-86
2022/03/01 08:29:37;;;;;;;19.95;12.27;;;6.40;99.90;;;;;;5030498;28;20393;-86
2022/03/01 08:32:03;;;;;;;17.83;12.52;;;6.50;99.90;;;;;;5031277;28;20044;-85
2022/03/01 08:34:29;;;;;;;16.95;11.05;;;6.70;99.90;;;;;;5030697;28;20113;-87
2022/03/01 08:36:55;;;;;;;15.68;11.63;;;6.90;99.90;;;;;;5031181;28;20070;-86
2022/03/01 08:39:22;;;;;;;15.52;11.32;;;7.30;99.90;;;;;;5013523;28;20100;-86
2022/03/01 08:41:50;;;;;;;17.58;11.63;;;7.70;99.90;;;;;;5032894;28;20041;-86
2022/03/01 08:44:15;;;;;;;16.25;11.88;;;8.10;99.90;;;;;;5034250;28;20417;-86
2022/03/01 08:46:41;;;;;;;17.63;12.65;;;9.60;99.90;;;;;;5033185;28;20025;-85
2022/03/01 08:49:07;;;;;;;16.45;12.90;;;11.60;99.90;;;;;;5033828;28;20041;-86
2022/03/01 08:51:33;;;;;;;18.02;13.13;;;12.60;99.90;;;;;;5034517;28;20033;-86
2022/03/01 08:53:59;;;;;;;17.17;12.15;;;12.20;99.90;;;;;;5033339;28;20030;-86
2022/03/01 08:56:25;;;;;;;16.15;12.85;;;12.60;99.90;;;;;;5033393;28;20020;-86
2022/03/01 08:58:51;;;;;;;18.48;13.80;;;13.60;99.90;;;;;;5033688;28;20038;-86
2022/03/01 09:01:17;;;;;;;21.17;12.85;;;14.30;99.90;;;;;;5017426;28;20041;-86
2022/03/01 09:03:44;;;;;;;16.88;12.90;;;14.60;99.90;;;;;;5034207;28;20029;-87
2022/03/01 09:06:10;;;;;;;18.73;13.55;;;14.80;99.90;;;;;;5034139;28;20056;-84
2022/03/01 09:08:40;;;;;;;17.42;13.25;;;13.40;99.90;;;;;;5033782;28;20065;-85
2022/03/01 09:11:08;;;;;;;17.85;14.30;;;12.80;99.90;;;;;;5033619;28;20497;-86
2022/03/01 09:13:33;;;;;;;20.45;14.00;;;12.40;99.90;;;;;;5033673;28;20405;-85
2022/03/01 09:15:59;;;;;;;17.88;13.07;;;12.40;99.90;;;;;;5033774;28;20036;-86
2022/03/01 09:18:25;;;;;;;17.20;13.05;;;13.50;99.90;;;;;;5034446;28;20026;-85
2022/03/01 09:20:51;;;;;;;16.58;13.20;;;13.70;99.90;;;;;;5018659;28;20124;-85
2022/03/01 09:23:16;;;;;;;15.57;13.77;;;14.00;99.90;;;;;;5033148;28;20156;-85
2022/03/01 09:25:42;;;;;;;16.92;12.75;;;14.20;99.90;;;;;;5033034;28;20060;-85
2022/03/01 09:28:08;;;;;;;15.60;12.73;;;14.40;99.90;;;;;;5015767;28;20455;-85
2022/03/01 09:30:34;;;;;;;15.90;12.35;;;15.10;99.90;;;;;;5034023;28;20029;-84
2022/03/01 09:33:00;;;;;;;14.82;12.70;;;15.90;99.90;;;;;;5033157;28;20025;-86
2022/03/01 09:35:25;;;;;;;15.43;12.80;;;16.60;99.90;;;;;;5033502;28;20040;-85
2022/03/01 09:37:51;;;;;;;15.80;13.07;;;17.10;99.90;;;;;;5032814;28;20041;-85
2022/03/01 09:40:17;;;;;;;16.13;12.52;;;16.90;99.90;;;;;;5032277;28;20119;-86
2022/03/01 09:42:43;;;;;;;14.57;12.88;;;17.10;99.90;;;;;;5032689;28;20036;-86
2022/03/01 09:45:11;;;;;;;15.38;12.68;;;18.00;99.90;;;;;;5032534;28;20115;-86
2022/03/01 09:47:38;;;;;;;14.93;13.05;;;17.70;99.90;;;;;;5015805;28;20483;-85
2022/03/01 09:50:05;;;;;;;15.30;13.63;;;17.80;99.90;;;;;;5032722;28;20021;-86
2022/03/01 09:52:32;;;;;;;15.10;13.30;;;18.60;99.90;;;;;;5032691;28;20022;-86
2022/03/01 09:54:58;;;;;;;15.25;13.68;;;18.40;99.90;;;;;;5032628;28;20029;-86
2022/03/01 09:57:24;;;;;;;14.88;13.38;;;18.40;99.90;;;;;;5032954;28;20049;-86
2022/03/01 09:59:50;;;;;;;14.15;12.75;;;18.80;99.90;;;;;;5032544;28;20491;-85
2022/03/01 10:02:16;;;;;;;16.08;13.60;;;20.10;99.90;;;;;;5032418;28;20033;-85
2022/03/01 10:04:57;;;;;;;15.07;13.55;;;19.90;99.90;;;;;;5032958;28;20509;-86
2022/03/01 10:07:26;;;;;;;15.00;13.50;;;19.80;99.90;;;;;;5032561;28;20037;-86
2022/03/01 10:09:52;;;;;;;15.02;13.52;;;19.80;99.90;;;;;;5032088;28;20434;-85
2022/03/01 10:12:25;;;;;;;15.85;13.73;;;20.20;99.90;;;;;;5033142;28;20032;-85
2022/03/01 10:15:02;;;;;;;14.88;13.38;;;19.70;99.90;;;;;;5032187;28;20040;-85
2022/03/01 10:17:40;;;;;;;15.95;14.35;;;20.00;99.90;;;;;;5031683;28;20029;-86
2022/03/01 10:20:12;;;;;;;15.23;13.68;;;20.60;99.90;;;;;;5032069;28;20021;-86
2022/03/01 10:22:47;;;;;;;18.17;13.57;;;20.70;99.90;;;;;;5031891;28;20037;-84
2022/03/01 10:25:14;;;;;;;15.25;13.77;;;22.00;99.90;;;;;;5031974;28;20052;-83
2022/03/01 10:27:42;;;;;;;14.63;13.23;;;21.20;99.90;;;;;;5031935;28;20033;-83
2022/03/01 10:30:08;;;;;;;15.23;13.65;;;21.70;99.90;;;;;;5032511;28;20492;-83
2022/03/01 10:32:34;;;;;;;16.58;13.88;;;21.60;99.90;;;;;;5031789;28;20028;-83
2022/03/01 10:35:08;;;;;;;17.65;13.20;;;22.20;99.90;;;;;;5031382;28;20038;-84
2022/03/01 10:37:36;;;;;;;14.65;13.15;;;23.30;99.90;;;;;;5031342;28;20042;-83
2022/03/01 10:40:21;;;;;;;14.98;13.48;;;24.90;99.90;;;;;;5014907;28;20405;-85
2022/03/01 10:43:09;;;;;;;15.88;14.27;;;25.00;99.90;;;;;;5026858;28;20064;-83
2022/03/01 10:45:42;;;;;;;17.42;13.85;;;24.90;99.90;;;;;;5032041;28;20014;-84
2022/03/01 10:48:10;;;;;;;15.55;14.13;;;26.10;99.90;;;;;;5031907;28;20040;-84
2022/03/01 10:50:37;;;;;;;15.27;13.77;;;25.90;99.90;;;;;;5031327;28;20428;-82
2022/03/01 10:53:04;;;;;;;14.57;13.18;;;23.80;99.90;;;;;;5030960;28;20061;-84
2022/03/01 10:55:33;;;;;;;14.23;12.90;;;24.10;99.90;;;;;;5031322;28;20374;-82
2022/03/01 10:57:59;;;;;;;14.63;13.15;;;25.10;99.90;;;;;;5031024;28;20104;-84
2022/03/01 11:00:25;;;;;;;14.43;13.07;;;24.40;99.90;;;;;;5031846;28;20021;-83
2022/03/01 11:02:51;;;;;;;14.52;12.95;;;24.90;99.90;;;;;;5031322;28;20086;-83
2022/03/01 11:05:16;;;;;;;13.27;12.02;;;24.70;99.90;;;;;;5032810;28;20116;-83
2022/03/01 11:07:46;;;;;;;13.20;12.00;;;25.40;99.90;;;;;;5030685;28;20032;-83
2022/03/01 11:10:13;;;;;;;13.48;12.18;;;24.10;99.90;;;;;;5030151;28;20050;-83
2022/03/01 11:12:42;;;;;;;13.70;12.50;;;24.50;99.90;;;;;;5013453;28;20049;-82
2022/03/01 11:15:38;;;;;;;14.63;13.15;;;25.50;99.90;;;;;;5032084;28;20038;-83
2022/03/01 11:18:46;;;;;;;14.98;13.52;;;26.70;99.90;;;;;;5016215;28;20401;-84
2022/03/01 11:21:14;;;;;;;14.85;13.45;;;25.80;99.90;;;;;;5024252;28;20049;-83
2022/03/01 11:23:42;;;;;;;14.48;13.07;;;25.40;99.90;;;;;;5031077;28;20093;-84
2022/03/01 11:26:13;;;;;;;14.60;13.20;;;26.20;99.90;;;;;;5030993;28;20116;-83
2022/03/01 11:28:42;;;;;;;14.32;13.02;;;26.80;99.90;;;;;;5030754;28;20021;-82
2022/03/01 11:31:28;;;;;;;14.68;13.32;;;27.30;99.90;;;;;;5015812;28;20067;-82
2022/03/01 11:33:58;;;;;;;15.25;13.65;;;27.60;99.90;;;;;;5029356;28;20025;-81
2022/03/01 11:36:27;;;;;;;14.32;12.90;;;27.50;99.90;;;;;;5031314;28;20033;-83
2022/03/01 11:38:53;;;;;;;14.75;13.40;;;26.50;99.90;;;;;;5030527;28;20520;-81
2022/03/01 11:41:22;;;;;;;13.52;12.32;;;25.10;99.90;;;;;;5030580;28;20112;-83
2022/03/01 11:43:57;;;;;;;15.48;14.15;;;25.70;99.90;;;;;;5031413;28;20112;-83
2022/03/01 11:46:23;;;;;;;15.15;13.57;;;26.10;99.90;;;;;;5030781;28;20579;-83
2022/03/01 11:48:57;;;;;;;15.18;13.68;;;25.90;99.90;;;;;;5030641;28;20057;-83
2022/03/01 11:51:39;;;;;;;14.40;13.10;;;25.50;99.90;;;;;;5029777;28;20037;-84
2022/03/01 11:54:09;;;;;;;15.18;13.75;;;26.30;99.90;;;;;;5030705;28;20489;-83
2022/03/01 11:56:36;;;;;;;15.38;13.77;;;25.10;99.90;;;;;;5029974;28;20104;-83
2022/03/01 11:59:07;;;;;;;14.98;13.45;;;26.10;99.90;;;;;;5030208;28;20022;-83
2022/03/01 12:01:34;;;;;;;14.15;12.75;;;27.00;99.90;;;;;;5030395;28;20375;-84
2022/03/01 12:04:02;;;;;;;14.88;13.27;;;26.50;99.90;;;;;;5030237;28;20026;-84
2022/03/01 12:06:29;;;;;;;14.40;13.00;;;26.40;99.90;;;;;;5031115;28;20034;-82
2022/03/01 12:09:00;;;;;;;14.70;13.40;;;27.30;99.90;;;;;;5030467;28;20017;-84
2022/03/01 12:11:37;;;;;;;14.13;12.82;;;27.60;99.90;;;;;;5030754;28;20029;-83
2022/03/01 12:14:09;;;;;;;14.30;12.90;;;27.90;99.90;;;;;;5030385;28;20017;-82
2022/03/01 12:16:36;;;;;;;13.80;12.50;;;27.00;99.90;;;;;;5033962;28;20022;-83
2022/03/01 12:19:17;;;;;;;14.20;12.80;;;25.80;99.90;;;;;;5033760;28;20029;-82
2022/03/01 12:22:02;;;;;;;14.27;12.85;;;25.30;99.90;;;;;;5029044;28;20033;-82
2022/03/01 12:24:30;;;;;;;13.80;12.50;;;26.20;99.90;;;;;;5034338;28;20021;-81
2022/03/01 12:26:59;;;;;;;12.93;11.68;;;26.50;99.90;;;;;;5034253;28;20030;-82
2022/03/01 12:29:33;;;;;;;11.52;10.43;;;26.40;99.90;;;;;;5033746;28;20155;-81
2022/03/01 12:32:08;;;;;;;10.77;9.73;;;25.80;99.90;;;;;;5033700;28;20025;-82